logo
Search for airport 
image banner adimage banner adimage banner ad
image banner ad

CSB2 - Sable Island

Located in , Canada

ICAO - CSB2, IATA - YSA

Data provided by Airmate  

General information

Coordinates: N43°55'46" W59°57'35"
Elevation is 4 feet MSL.
Magnetic variation is -16.8917° East
View others Airports in Nova Scotia

Operational data

Special qualification required
Current time UTC:
Current local time:
Weather at : - ( 0 km )
METAR: KOWA 230533Z AUTO 23007KT 10SM CLR 09/01 A2968 RMK AO2
View NOTAMs / SUP AIP / TFR affecting this airport [VIEW]
Communications frequencies: [VIEW]

Runways:

RWY identifierQFULength (ft)Width (ft)SurfaceLDA (ft)
1188°150040SAND1500
29268°150040SAND1500

Airport contact information

Address: Canada

Satellite view of CSB2